sensor_id;sensor_type;location;lat;lon;timestamp;P1;durP1;ratioP1;P2;durP2;ratioP2
19339;SDS011;9804;52.350;6.684;2023-06-04T00:01:01;3.72;;;1.85;;
19339;SDS011;9804;52.350;6.684;2023-06-04T00:03:27;5.57;;;2.90;;
19339;SDS011;9804;52.350;6.684;2023-06-04T00:05:53;5.80;;;2.55;;
19339;SDS011;9804;52.350;6.684;2023-06-04T00:08:18;7.68;;;4.30;;
19339;SDS011;9804;52.350;6.684;2023-06-04T00:10:44;8.93;;;3.92;;
19339;SDS011;9804;52.350;6.684;2023-06-04T00:13:09;8.00;;;3.72;;
19339;SDS011;9804;52.350;6.684;2023-06-04T00:15:35;7.13;;;2.83;;
19339;SDS011;9804;52.350;6.684;2023-06-04T00:18:00;4.60;;;2.08;;
19339;SDS011;9804;52.350;6.684;2023-06-04T00:20:26;4.88;;;1.90;;
19339;SDS011;9804;52.350;6.684;2023-06-04T00:22:51;5.10;;;2.50;;
19339;SDS011;9804;52.350;6.684;2023-06-04T00:25:16;2.80;;;1.48;;
19339;SDS011;9804;52.350;6.684;2023-06-04T00:27:42;5.53;;;2.10;;
19339;SDS011;9804;52.350;6.684;2023-06-04T00:30:07;4.82;;;1.27;;
19339;SDS011;9804;52.350;6.684;2023-06-04T00:32:33;5.75;;;2.50;;
19339;SDS011;9804;52.350;6.684;2023-06-04T00:34:59;4.95;;;2.10;;
19339;SDS011;9804;52.350;6.684;2023-06-04T00:37:25;6.47;;;2.65;;
19339;SDS011;9804;52.350;6.684;2023-06-04T00:39:50;3.90;;;1.08;;
19339;SDS011;9804;52.350;6.684;2023-06-04T00:42:16;4.35;;;1.10;;
19339;SDS011;9804;52.350;6.684;2023-06-04T00:44:42;6.97;;;1.70;;
19339;SDS011;9804;52.350;6.684;2023-06-04T00:47:10;4.75;;;1.90;;
19339;SDS011;9804;52.350;6.684;2023-06-04T00:49:39;4.65;;;2.20;;
19339;SDS011;9804;52.350;6.684;2023-06-04T00:52:06;5.50;;;2.22;;
19339;SDS011;9804;52.350;6.684;2023-06-04T00:54:35;5.13;;;2.95;;
19339;SDS011;9804;52.350;6.684;2023-06-04T00:57:01;4.38;;;2.10;;
19339;SDS011;9804;52.350;6.684;2023-06-04T00:59:27;7.78;;;3.40;;
19339;SDS011;9804;52.350;6.684;2023-06-04T01:02:01;3.75;;;1.80;;
19339;SDS011;9804;52.350;6.684;2023-06-04T01:07:05;3.25;;;1.70;;
19339;SDS011;9804;52.350;6.684;2023-06-04T01:09:33;4.75;;;1.98;;
19339;SDS011;9804;52.350;6.684;2023-06-04T01:12:03;3.05;;;1.83;;
19339;SDS011;9804;52.350;6.684;2023-06-04T01:14:29;2.33;;;1.20;;
19339;SDS011;9804;52.350;6.684;2023-06-04T01:16:59;4.05;;;1.27;;
19339;SDS011;9804;52.350;6.684;2023-06-04T01:19:39;3.15;;;1.30;;
19339;SDS011;9804;52.350;6.684;2023-06-04T01:25:04;8.80;;;3.28;;
19339;SDS011;9804;52.350;6.684;2023-06-04T01:27:31;5.70;;;2.30;;
19339;SDS011;9804;52.350;6.684;2023-06-04T01:30:00;6.05;;;2.38;;
19339;SDS011;9804;52.350;6.684;2023-06-04T01:32:26;5.40;;;2.25;;
19339;SDS011;9804;52.350;6.684;2023-06-04T01:34:51;6.35;;;2.30;;
19339;SDS011;9804;52.350;6.684;2023-06-04T01:37:17;15.63;;;5.70;;
19339;SDS011;9804;52.350;6.684;2023-06-04T01:39:43;8.15;;;4.05;;
19339;SDS011;9804;52.350;6.684;2023-06-04T01:42:08;10.73;;;5.30;;
19339;SDS011;9804;52.350;6.684;2023-06-04T01:44:34;6.75;;;2.55;;
19339;SDS011;9804;52.350;6.684;2023-06-04T01:47:00;16.95;;;5.75;;
19339;SDS011;9804;52.350;6.684;2023-06-04T01:49:25;16.95;;;7.32;;
19339;SDS011;9804;52.350;6.684;2023-06-04T01:51:51;4.18;;;2.42;;
19339;SDS011;9804;52.350;6.684;2023-06-04T01:54:16;10.75;;;4.80;;
19339;SDS011;9804;52.350;6.684;2023-06-04T01:56:42;6.78;;;3.05;;
19339;SDS011;9804;52.350;6.684;2023-06-04T01:59:08;10.52;;;4.88;;
19339;SDS011;9804;52.350;6.684;2023-06-04T02:01:37;5.40;;;2.05;;
19339;SDS011;9804;52.350;6.684;2023-06-04T02:04:02;5.57;;;3.42;;
19339;SDS011;9804;52.350;6.684;2023-06-04T02:06:28;12.40;;;6.47;;
19339;SDS011;9804;52.350;6.684;2023-06-04T02:08:54;6.38;;;3.22;;
19339;SDS011;9804;52.350;6.684;2023-06-04T02:11:20;9.00;;;3.90;;
19339;SDS011;9804;52.350;6.684;2023-06-04T02:13:45;4.30;;;2.60;;
19339;SDS011;9804;52.350;6.684;2023-06-04T02:16:11;6.65;;;2.05;;
19339;SDS011;9804;52.350;6.684;2023-06-04T02:18:36;3.22;;;2.10;;
19339;SDS011;9804;52.350;6.684;2023-06-04T02:21:02;4.40;;;2.20;;
19339;SDS011;9804;52.350;6.684;2023-06-04T02:23:27;6.45;;;2.67;;
19339;SDS011;9804;52.350;6.684;2023-06-04T02:25:52;5.28;;;2.03;;
19339;SDS011;9804;52.350;6.684;2023-06-04T02:28:18;6.97;;;2.35;;
19339;SDS011;9804;52.350;6.684;2023-06-04T02:30:44;3.80;;;2.17;;
19339;SDS011;9804;52.350;6.684;2023-06-04T02:33:10;3.92;;;2.28;;
19339;SDS011;9804;52.350;6.684;2023-06-04T02:35:36;4.65;;;2.10;;
19339;SDS011;9804;52.350;6.684;2023-06-04T02:38:02;6.47;;;2.22;;
19339;SDS011;9804;52.350;6.684;2023-06-04T02:40:27;3.08;;;2.00;;
19339;SDS011;9804;52.350;6.684;2023-06-04T02:42:54;4.93;;;2.20;;
19339;SDS011;9804;52.350;6.684;2023-06-04T02:45:20;3.65;;;2.28;;
19339;SDS011;9804;52.350;6.684;2023-06-04T02:47:46;4.53;;;2.00;;
19339;SDS011;9804;52.350;6.684;2023-06-04T02:50:12;5.40;;;2.65;;
19339;SDS011;9804;52.350;6.684;2023-06-04T02:52:38;3.67;;;1.98;;
19339;SDS011;9804;52.350;6.684;2023-06-04T02:55:05;4.60;;;2.00;;
19339;SDS011;9804;52.350;6.684;2023-06-04T02:57:36;5.22;;;2.63;;
19339;SDS011;9804;52.350;6.684;2023-06-04T03:00:04;7.53;;;2.47;;
19339;SDS011;9804;52.350;6.684;2023-06-04T03:02:36;8.25;;;2.80;;
19339;SDS011;9804;52.350;6.684;2023-06-04T03:05:02;6.50;;;2.60;;
19339;SDS011;9804;52.350;6.684;2023-06-04T03:07:27;7.18;;;3.08;;
19339;SDS011;9804;52.350;6.684;2023-06-04T03:09:53;8.38;;;3.63;;
19339;SDS011;9804;52.350;6.684;2023-06-04T03:12:18;10.27;;;4.00;;
19339;SDS011;9804;52.350;6.684;2023-06-04T03:14:43;6.30;;;2.83;;
19339;SDS011;9804;52.350;6.684;2023-06-04T03:17:09;8.40;;;3.85;;
19339;SDS011;9804;52.350;6.684;2023-06-04T03:19:39;6.00;;;2.92;;
19339;SDS011;9804;52.350;6.684;2023-06-04T03:22:07;8.57;;;4.85;;
19339;SDS011;9804;52.350;6.684;2023-06-04T03:24:39;5.88;;;2.95;;
19339;SDS011;9804;52.350;6.684;2023-06-04T03:27:06;7.63;;;3.00;;
19339;SDS011;9804;52.350;6.684;2023-06-04T03:29:32;5.47;;;2.97;;
19339;SDS011;9804;52.350;6.684;2023-06-04T03:31:59;8.68;;;3.65;;
19339;SDS011;9804;52.350;6.684;2023-06-04T03:34:25;8.55;;;3.50;;
19339;SDS011;9804;52.350;6.684;2023-06-04T03:36:51;4.10;;;2.70;;
19339;SDS011;9804;52.350;6.684;2023-06-04T03:39:17;7.82;;;3.88;;
19339;SDS011;9804;52.350;6.684;2023-06-04T03:41:42;5.13;;;3.08;;
19339;SDS011;9804;52.350;6.684;2023-06-04T03:44:08;5.78;;;3.47;;
19339;SDS011;9804;52.350;6.684;2023-06-04T03:46:33;8.65;;;3.95;;
19339;SDS011;9804;52.350;6.684;2023-06-04T03:49:00;10.57;;;3.83;;
19339;SDS011;9804;52.350;6.684;2023-06-04T03:51:25;6.47;;;3.55;;
19339;SDS011;9804;52.350;6.684;2023-06-04T03:53:51;7.40;;;3.70;;
19339;SDS011;9804;52.350;6.684;2023-06-04T03:56:17;9.23;;;3.72;;
19339;SDS011;9804;52.350;6.684;2023-06-04T03:58:42;12.70;;;3.90;;
19339;SDS011;9804;52.350;6.684;2023-06-04T04:01:08;9.43;;;4.18;;
19339;SDS011;9804;52.350;6.684;2023-06-04T04:03:35;8.20;;;3.60;;
19339;SDS011;9804;52.350;6.684;2023-06-04T04:06:01;8.25;;;4.47;;
19339;SDS011;9804;52.350;6.684;2023-06-04T04:08:26;10.15;;;3.72;;
19339;SDS011;9804;52.350;6.684;2023-06-04T04:10:56;11.43;;;4.80;;
19339;SDS011;9804;52.350;6.684;2023-06-04T04:13:22;6.82;;;3.95;;
19339;SDS011;9804;52.350;6.684;2023-06-04T04:15:47;6.93;;;3.58;;
19339;SDS011;9804;52.350;6.684;2023-06-04T04:18:12;8.70;;;4.47;;
19339;SDS011;9804;52.350;6.684;2023-06-04T04:20:38;7.82;;;4.25;;
19339;SDS011;9804;52.350;6.684;2023-06-04T04:23:03;9.98;;;4.60;;
19339;SDS011;9804;52.350;6.684;2023-06-04T04:25:29;6.47;;;3.95;;
19339;SDS011;9804;52.350;6.684;2023-06-04T04:27:57;10.27;;;3.97;;
19339;SDS011;9804;52.350;6.684;2023-06-04T04:30:25;10.55;;;4.40;;
19339;SDS011;9804;52.350;6.684;2023-06-04T04:32:50;7.95;;;3.72;;
19339;SDS011;9804;52.350;6.684;2023-06-04T04:35:16;9.27;;;4.32;;
19339;SDS011;9804;52.350;6.684;2023-06-04T04:37:43;9.90;;;4.70;;
19339;SDS011;9804;52.350;6.684;2023-06-04T04:40:09;11.23;;;4.43;;
19339;SDS011;9804;52.350;6.684;2023-06-04T04:42:37;6.93;;;4.00;;
19339;SDS011;9804;52.350;6.684;2023-06-04T04:45:02;8.93;;;4.60;;
19339;SDS011;9804;52.350;6.684;2023-06-04T04:47:28;11.18;;;3.72;;
19339;SDS011;9804;52.350;6.684;2023-06-04T04:49:54;9.32;;;4.40;;
19339;SDS011;9804;52.350;6.684;2023-06-04T04:52:19;8.68;;;3.97;;
19339;SDS011;9804;52.350;6.684;2023-06-04T04:54:44;7.78;;;3.90;;
19339;SDS011;9804;52.350;6.684;2023-06-04T04:57:10;8.93;;;3.42;;
19339;SDS011;9804;52.350;6.684;2023-06-04T04:59:35;8.07;;;4.28;;
19339;SDS011;9804;52.350;6.684;2023-06-04T05:02:00;6.38;;;3.53;;
19339;SDS011;9804;52.350;6.684;2023-06-04T05:04:26;6.05;;;3.75;;
19339;SDS011;9804;52.350;6.684;2023-06-04T05:06:51;9.18;;;4.13;;
19339;SDS011;9804;52.350;6.684;2023-06-04T05:09:17;11.93;;;3.78;;
19339;SDS011;9804;52.350;6.684;2023-06-04T05:11:43;7.85;;;3.92;;
19339;SDS011;9804;52.350;6.684;2023-06-04T05:14:08;11.35;;;3.58;;
19339;SDS011;9804;52.350;6.684;2023-06-04T05:16:33;10.45;;;3.30;;
19339;SDS011;9804;52.350;6.684;2023-06-04T05:19:03;9.40;;;3.80;;
19339;SDS011;9804;52.350;6.684;2023-06-04T05:21:28;7.43;;;3.42;;
19339;SDS011;9804;52.350;6.684;2023-06-04T05:23:54;8.68;;;3.38;;
19339;SDS011;9804;52.350;6.684;2023-06-04T05:26:20;8.25;;;3.50;;
19339;SDS011;9804;52.350;6.684;2023-06-04T05:28:50;7.55;;;3.60;;
19339;SDS011;9804;52.350;6.684;2023-06-04T05:31:16;9.38;;;3.70;;
19339;SDS011;9804;52.350;6.684;2023-06-04T05:33:43;8.75;;;3.70;;
19339;SDS011;9804;52.350;6.684;2023-06-04T05:36:09;7.82;;;3.88;;
19339;SDS011;9804;52.350;6.684;2023-06-04T05:38:34;7.32;;;3.63;;
19339;SDS011;9804;52.350;6.684;2023-06-04T05:41:00;7.85;;;3.42;;
19339;SDS011;9804;52.350;6.684;2023-06-04T05:43:26;10.02;;;3.35;;
19339;SDS011;9804;52.350;6.684;2023-06-04T05:45:51;6.47;;;2.95;;
19339;SDS011;9804;52.350;6.684;2023-06-04T05:48:18;7.55;;;3.33;;
19339;SDS011;9804;52.350;6.684;2023-06-04T05:50:43;6.57;;;2.88;;
19339;SDS011;9804;52.350;6.684;2023-06-04T05:53:09;5.63;;;2.42;;
19339;SDS011;9804;52.350;6.684;2023-06-04T05:55:35;6.10;;;2.70;;
19339;SDS011;9804;52.350;6.684;2023-06-04T05:58:01;6.78;;;2.35;;
19339;SDS011;9804;52.350;6.684;2023-06-04T06:00:27;6.53;;;2.70;;
19339;SDS011;9804;52.350;6.684;2023-06-04T06:02:52;4.38;;;2.45;;
19339;SDS011;9804;52.350;6.684;2023-06-04T06:05:18;7.68;;;2.70;;
19339;SDS011;9804;52.350;6.684;2023-06-04T06:07:44;7.85;;;2.10;;
19339;SDS011;9804;52.350;6.684;2023-06-04T06:10:10;6.90;;;2.13;;
19339;SDS011;9804;52.350;6.684;2023-06-04T06:12:36;6.85;;;2.20;;
19339;SDS011;9804;52.350;6.684;2023-06-04T06:15:02;6.38;;;2.42;;
19339;SDS011;9804;52.350;6.684;2023-06-04T06:17:27;4.43;;;2.10;;
19339;SDS011;9804;52.350;6.684;2023-06-04T06:19:53;3.72;;;2.05;;
19339;SDS011;9804;52.350;6.684;2023-06-04T06:22:19;6.97;;;2.45;;
19339;SDS011;9804;52.350;6.684;2023-06-04T06:24:44;5.03;;;2.40;;
19339;SDS011;9804;52.350;6.684;2023-06-04T06:27:10;6.93;;;2.65;;
19339;SDS011;9804;52.350;6.684;2023-06-04T06:29:35;6.38;;;2.30;;
19339;SDS011;9804;52.350;6.684;2023-06-04T06:32:02;5.32;;;2.42;;
19339;SDS011;9804;52.350;6.684;2023-06-04T06:34:27;5.22;;;2.45;;
19339;SDS011;9804;52.350;6.684;2023-06-04T06:36:53;5.13;;;2.50;;
19339;SDS011;9804;52.350;6.684;2023-06-04T06:39:18;7.03;;;2.60;;
19339;SDS011;9804;52.350;6.684;2023-06-04T06:41:45;5.28;;;2.10;;
19339;SDS011;9804;52.350;6.684;2023-06-04T06:44:10;4.70;;;2.40;;
19339;SDS011;9804;52.350;6.684;2023-06-04T06:46:35;4.88;;;2.33;;
19339;SDS011;9804;52.350;6.684;2023-06-04T06:49:01;6.10;;;2.38;;
19339;SDS011;9804;52.350;6.684;2023-06-04T06:51:26;6.80;;;2.28;;
19339;SDS011;9804;52.350;6.684;2023-06-04T06:53:52;5.97;;;2.28;;
19339;SDS011;9804;52.350;6.684;2023-06-04T06:56:17;5.60;;;2.35;;
19339;SDS011;9804;52.350;6.684;2023-06-04T06:58:43;6.18;;;2.20;;
19339;SDS011;9804;52.350;6.684;2023-06-04T07:01:09;4.75;;;2.30;;
19339;SDS011;9804;52.350;6.684;2023-06-04T07:03:35;5.82;;;2.40;;
19339;SDS011;9804;52.350;6.684;2023-06-04T07:06:00;6.22;;;2.38;;
19339;SDS011;9804;52.350;6.684;2023-06-04T07:08:26;8.23;;;2.25;;
19339;SDS011;9804;52.350;6.684;2023-06-04T07:10:51;5.55;;;2.13;;
19339;SDS011;9804;52.350;6.684;2023-06-04T07:13:17;5.57;;;2.08;;
19339;SDS011;9804;52.350;6.684;2023-06-04T07:15:42;5.38;;;1.95;;
19339;SDS011;9804;52.350;6.684;2023-06-04T07:18:08;4.30;;;2.10;;
19339;SDS011;9804;52.350;6.684;2023-06-04T07:20:33;4.57;;;2.25;;
19339;SDS011;9804;52.350;6.684;2023-06-04T07:22:58;4.78;;;2.00;;
19339;SDS011;9804;52.350;6.684;2023-06-04T07:25:24;5.55;;;1.85;;
19339;SDS011;9804;52.350;6.684;2023-06-04T07:27:50;5.30;;;1.80;;
19339;SDS011;9804;52.350;6.684;2023-06-04T07:30:16;3.78;;;1.90;;
19339;SDS011;9804;52.350;6.684;2023-06-04T07:32:45;7.70;;;2.00;;
19339;SDS011;9804;52.350;6.684;2023-06-04T07:35:11;3.80;;;1.80;;
19339;SDS011;9804;52.350;6.684;2023-06-04T07:37:37;5.68;;;1.80;;
19339;SDS011;9804;52.350;6.684;2023-06-04T07:40:02;4.88;;;1.80;;
19339;SDS011;9804;52.350;6.684;2023-06-04T07:42:28;4.55;;;1.67;;
19339;SDS011;9804;52.350;6.684;2023-06-04T07:44:54;4.57;;;1.70;;
19339;SDS011;9804;52.350;6.684;2023-06-04T07:47:19;5.90;;;1.88;;
19339;SDS011;9804;52.350;6.684;2023-06-04T07:49:45;3.45;;;1.77;;
19339;SDS011;9804;52.350;6.684;2023-06-04T07:52:10;2.55;;;1.33;;
19339;SDS011;9804;52.350;6.684;2023-06-04T07:54:36;6.10;;;1.67;;
19339;SDS011;9804;52.350;6.684;2023-06-04T07:57:02;4.50;;;1.60;;
19339;SDS011;9804;52.350;6.684;2023-06-04T07:59:27;6.93;;;1.83;;
19339;SDS011;9804;52.350;6.684;2023-06-04T08:01:54;3.20;;;1.50;;
19339;SDS011;9804;52.350;6.684;2023-06-04T08:04:19;4.10;;;1.77;;
19339;SDS011;9804;52.350;6.684;2023-06-04T08:06:45;4.15;;;1.52;;
19339;SDS011;9804;52.350;6.684;2023-06-04T08:09:11;3.88;;;1.48;;
19339;SDS011;9804;52.350;6.684;2023-06-04T08:11:39;5.35;;;1.60;;
19339;SDS011;9804;52.350;6.684;2023-06-04T08:14:05;3.60;;;1.48;;
19339;SDS011;9804;52.350;6.684;2023-06-04T08:16:31;3.58;;;1.65;;
19339;SDS011;9804;52.350;6.684;2023-06-04T08:18:57;3.17;;;1.50;;
19339;SDS011;9804;52.350;6.684;2023-06-04T08:21:26;3.17;;;1.58;;
19339;SDS011;9804;52.350;6.684;2023-06-04T08:23:52;29.90;;;4.43;;
19339;SDS011;9804;52.350;6.684;2023-06-04T08:26:18;4.38;;;1.23;;
19339;SDS011;9804;52.350;6.684;2023-06-04T08:28:44;5.05;;;1.15;;
19339;SDS011;9804;52.350;6.684;2023-06-04T08:31:12;2.72;;;1.30;;
19339;SDS011;9804;52.350;6.684;2023-06-04T08:33:37;4.20;;;1.40;;
19339;SDS011;9804;52.350;6.684;2023-06-04T08:36:03;4.68;;;1.10;;
19339;SDS011;9804;52.350;6.684;2023-06-04T08:38:28;6.05;;;1.65;;
19339;SDS011;9804;52.350;6.684;2023-06-04T08:40:53;2.17;;;1.20;;
19339;SDS011;9804;52.350;6.684;2023-06-04T08:43:26;4.22;;;1.02;;
19339;SDS011;9804;52.350;6.684;2023-06-04T08:45:51;4.10;;;1.52;;
19339;SDS011;9804;52.350;6.684;2023-06-04T08:48:24;4.82;;;1.20;;
19339;SDS011;9804;52.350;6.684;2023-06-04T08:50:50;4.10;;;1.20;;
19339;SDS011;9804;52.350;6.684;2023-06-04T08:53:17;3.47;;;1.20;;
19339;SDS011;9804;52.350;6.684;2023-06-04T08:55:43;4.10;;;1.13;;
19339;SDS011;9804;52.350;6.684;2023-06-04T08:58:08;2.92;;;1.20;;
19339;SDS011;9804;52.350;6.684;2023-06-04T09:00:35;1.70;;;1.10;;
19339;SDS011;9804;52.350;6.684;2023-06-04T09:03:01;4.80;;;1.40;;
19339;SDS011;9804;52.350;6.684;2023-06-04T09:05:28;2.78;;;1.13;;
19339;SDS011;9804;52.350;6.684;2023-06-04T09:07:54;5.18;;;1.25;;
19339;SDS011;9804;52.350;6.684;2023-06-04T09:10:24;1.52;;;0.90;;
19339;SDS011;9804;52.350;6.684;2023-06-04T09:12:51;2.78;;;1.30;;
19339;SDS011;9804;52.350;6.684;2023-06-04T09:15:17;5.13;;;1.25;;
19339;SDS011;9804;52.350;6.684;2023-06-04T09:17:43;2.00;;;1.20;;
19339;SDS011;9804;52.350;6.684;2023-06-04T09:20:17;3.90;;;1.20;;
19339;SDS011;9804;52.350;6.684;2023-06-04T09:22:47;4.25;;;0.93;;
19339;SDS011;9804;52.350;6.684;2023-06-04T09:25:25;2.67;;;1.10;;
19339;SDS011;9804;52.350;6.684;2023-06-04T09:27:52;2.60;;;1.13;;
19339;SDS011;9804;52.350;6.684;2023-06-04T09:30:22;3.50;;;1.27;;
19339;SDS011;9804;52.350;6.684;2023-06-04T09:32:48;5.65;;;1.30;;
19339;SDS011;9804;52.350;6.684;2023-06-04T09:35:14;2.25;;;0.80;;
19339;SDS011;9804;52.350;6.684;2023-06-04T09:37:42;2.13;;;0.90;;
19339;SDS011;9804;52.350;6.684;2023-06-04T09:40:08;2.47;;;1.30;;
19339;SDS011;9804;52.350;6.684;2023-06-04T09:42:44;1.60;;;1.00;;
19339;SDS011;9804;52.350;6.684;2023-06-04T09:45:11;2.72;;;1.10;;
19339;SDS011;9804;52.350;6.684;2023-06-04T09:47:40;2.33;;;1.10;;
19339;SDS011;9804;52.350;6.684;2023-06-04T09:50:07;1.40;;;1.00;;
19339;SDS011;9804;52.350;6.684;2023-06-04T09:52:33;2.80;;;1.10;;
19339;SDS011;9804;52.350;6.684;2023-06-04T09:54:59;1.75;;;0.88;;
19339;SDS011;9804;52.350;6.684;2023-06-04T09:57:24;4.70;;;0.73;;
19339;SDS011;9804;52.350;6.684;2023-06-04T09:59:52;2.33;;;0.98;;
19339;SDS011;9804;52.350;6.684;2023-06-04T10:02:19;1.75;;;1.13;;
19339;SDS011;9804;52.350;6.684;2023-06-04T10:04:48;2.90;;;0.90;;
19339;SDS011;9804;52.350;6.684;2023-06-04T10:07:18;2.05;;;0.75;;
19339;SDS011;9804;52.350;6.684;2023-06-04T10:09:44;1.00;;;0.90;;
19339;SDS011;9804;52.350;6.684;2023-06-04T10:12:13;3.88;;;0.90;;
19339;SDS011;9804;52.350;6.684;2023-06-04T10:14:51;1.73;;;1.30;;
19339;SDS011;9804;52.350;6.684;2023-06-04T10:17:21;1.98;;;1.00;;
19339;SDS011;9804;52.350;6.684;2023-06-04T10:19:49;4.60;;;1.30;;
19339;SDS011;9804;52.350;6.684;2023-06-04T10:22:17;1.42;;;0.90;;
19339;SDS011;9804;52.350;6.684;2023-06-04T10:24:51;2.67;;;0.92;;
19339;SDS011;9804;52.350;6.684;2023-06-04T10:27:17;2.08;;;0.90;;
19339;SDS011;9804;52.350;6.684;2023-06-04T10:29:44;1.42;;;0.90;;
19339;SDS011;9804;52.350;6.684;2023-06-04T10:32:11;1.48;;;0.77;;
19339;SDS011;9804;52.350;6.684;2023-06-04T10:34:36;3.30;;;0.93;;
19339;SDS011;9804;52.350;6.684;2023-06-04T10:37:02;2.75;;;1.15;;
19339;SDS011;9804;52.350;6.684;2023-06-04T10:39:28;1.48;;;1.23;;
19339;SDS011;9804;52.350;6.684;2023-06-04T10:44:24;2.08;;;1.00;;
19339;SDS011;9804;52.350;6.684;2023-06-04T10:46:49;1.50;;;0.90;;
19339;SDS011;9804;52.350;6.684;2023-06-04T10:49:25;1.73;;;0.82;;
19339;SDS011;9804;52.350;6.684;2023-06-04T10:51:51;2.80;;;0.93;;
19339;SDS011;9804;52.350;6.684;2023-06-04T10:54:23;2.72;;;1.02;;
19339;SDS011;9804;52.350;6.684;2023-06-04T10:56:50;2.55;;;1.00;;
19339;SDS011;9804;52.350;6.684;2023-06-04T10:59:17;1.33;;;0.88;;
19339;SDS011;9804;52.350;6.684;2023-06-04T11:01:43;4.13;;;1.33;;
19339;SDS011;9804;52.350;6.684;2023-06-04T11:04:24;2.20;;;0.80;;
19339;SDS011;9804;52.350;6.684;2023-06-04T11:07:06;2.42;;;1.35;;
19339;SDS011;9804;52.350;6.684;2023-06-04T11:09:34;1.20;;;1.00;;
19339;SDS011;9804;52.350;6.684;2023-06-04T11:12:01;2.72;;;1.08;;
19339;SDS011;9804;52.350;6.684;2023-06-04T11:14:29;3.80;;;1.55;;
19339;SDS011;9804;52.350;6.684;2023-06-04T11:16:54;1.92;;;0.98;;
19339;SDS011;9804;52.350;6.684;2023-06-04T11:19:20;3.35;;;1.20;;
19339;SDS011;9804;52.350;6.684;2023-06-04T11:21:46;4.50;;;1.10;;
19339;SDS011;9804;52.350;6.684;2023-06-04T11:24:12;5.13;;;1.17;;
19339;SDS011;9804;52.350;6.684;2023-06-04T11:26:38;2.53;;;1.27;;
19339;SDS011;9804;52.350;6.684;2023-06-04T11:29:07;2.45;;;1.10;;
19339;SDS011;9804;52.350;6.684;2023-06-04T11:31:47;1.63;;;1.10;;
19339;SDS011;9804;52.350;6.684;2023-06-04T11:34:30;2.47;;;1.30;;
19339;SDS011;9804;52.350;6.684;2023-06-04T11:37:07;2.33;;;1.20;;
19339;SDS011;9804;52.350;6.684;2023-06-04T11:39:36;2.33;;;1.38;;
19339;SDS011;9804;52.350;6.684;2023-06-04T11:42:04;1.95;;;1.00;;
19339;SDS011;9804;52.350;6.684;2023-06-04T11:44:31;3.13;;;1.30;;
19339;SDS011;9804;52.350;6.684;2023-06-04T11:46:56;3.28;;;1.35;;
19339;SDS011;9804;52.350;6.684;2023-06-04T11:49:22;1.35;;;1.00;;
19339;SDS011;9804;52.350;6.684;2023-06-04T11:54:13;3.22;;;1.13;;
19339;SDS011;9804;52.350;6.684;2023-06-04T11:56:41;2.30;;;1.20;;
19339;SDS011;9804;52.350;6.684;2023-06-04T11:59:09;2.75;;;1.23;;
19339;SDS011;9804;52.350;6.684;2023-06-04T12:01:38;1.58;;;1.13;;
19339;SDS011;9804;52.350;6.684;2023-06-04T12:04:11;1.77;;;1.20;;
19339;SDS011;9804;52.350;6.684;2023-06-04T12:06:37;2.58;;;1.10;;
19339;SDS011;9804;52.350;6.684;2023-06-04T12:09:03;1.92;;;1.25;;
19339;SDS011;9804;52.350;6.684;2023-06-04T12:11:33;2.17;;;1.10;;
19339;SDS011;9804;52.350;6.684;2023-06-04T12:14:06;2.03;;;0.98;;
19339;SDS011;9804;52.350;6.684;2023-06-04T12:16:34;3.95;;;1.08;;
19339;SDS011;9804;52.350;6.684;2023-06-04T12:19:09;2.08;;;1.00;;
19339;SDS011;9804;52.350;6.684;2023-06-04T12:21:40;6.95;;;1.38;;
19339;SDS011;9804;52.350;6.684;2023-06-04T12:26:33;2.00;;;1.52;;
19339;SDS011;9804;52.350;6.684;2023-06-04T12:29:02;2.85;;;1.20;;
19339;SDS011;9804;52.350;6.684;2023-06-04T12:31:36;1.33;;;1.10;;
19339;SDS011;9804;52.350;6.684;2023-06-04T12:34:03;2.60;;;1.27;;
19339;SDS011;9804;52.350;6.684;2023-06-04T12:36:28;2.38;;;1.20;;
19339;SDS011;9804;52.350;6.684;2023-06-04T12:38:58;4.25;;;1.13;;
19339;SDS011;9804;52.350;6.684;2023-06-04T12:41:25;1.92;;;1.20;;
19339;SDS011;9804;52.350;6.684;2023-06-04T12:43:51;1.98;;;1.40;;
19339;SDS011;9804;52.350;6.684;2023-06-04T12:46:16;2.80;;;1.17;;
19339;SDS011;9804;52.350;6.684;2023-06-04T12:48:42;2.63;;;1.30;;
19339;SDS011;9804;52.350;6.684;2023-06-04T12:51:08;2.63;;;1.25;;
19339;SDS011;9804;52.350;6.684;2023-06-04T12:53:39;3.88;;;1.45;;
19339;SDS011;9804;52.350;6.684;2023-06-04T12:56:08;3.97;;;1.48;;
19339;SDS011;9804;52.350;6.684;2023-06-04T12:58:34;1.88;;;1.20;;
19339;SDS011;9804;52.350;6.684;2023-06-04T13:01:00;2.20;;;1.40;;
19339;SDS011;9804;52.350;6.684;2023-06-04T13:03:26;2.60;;;1.20;;
19339;SDS011;9804;52.350;6.684;2023-06-04T13:05:52;3.30;;;1.20;;
19339;SDS011;9804;52.350;6.684;2023-06-04T13:08:19;5.40;;;1.30;;
19339;SDS011;9804;52.350;6.684;2023-06-04T13:10:48;2.22;;;1.10;;
19339;SDS011;9804;52.350;6.684;2023-06-04T13:13:15;2.15;;;1.20;;
19339;SDS011;9804;52.350;6.684;2023-06-04T13:15:41;2.28;;;1.17;;
19339;SDS011;9804;52.350;6.684;2023-06-04T13:18:10;3.70;;;1.30;;
19339;SDS011;9804;52.350;6.684;2023-06-04T13:20:36;2.20;;;1.15;;
19339;SDS011;9804;52.350;6.684;2023-06-04T13:23:02;1.42;;;0.90;;
19339;SDS011;9804;52.350;6.684;2023-06-04T13:25:28;1.80;;;1.02;;
19339;SDS011;9804;52.350;6.684;2023-06-04T13:27:54;3.47;;;1.42;;
19339;SDS011;9804;52.350;6.684;2023-06-04T13:30:20;2.58;;;1.45;;
19339;SDS011;9804;52.350;6.684;2023-06-04T13:32:49;3.42;;;1.33;;
19339;SDS011;9804;52.350;6.684;2023-06-04T13:35:14;1.85;;;1.38;;
19339;SDS011;9804;52.350;6.684;2023-06-04T13:37:40;2.13;;;1.30;;
19339;SDS011;9804;52.350;6.684;2023-06-04T13:40:06;2.22;;;1.30;;
19339;SDS011;9804;52.350;6.684;2023-06-04T13:42:32;4.90;;;1.30;;
19339;SDS011;9804;52.350;6.684;2023-06-04T13:44:58;2.92;;;1.38;;
19339;SDS011;9804;52.350;6.684;2023-06-04T13:47:24;2.58;;;1.40;;
19339;SDS011;9804;52.350;6.684;2023-06-04T13:49:49;2.13;;;1.20;;
19339;SDS011;9804;52.350;6.684;2023-06-04T13:52:15;2.00;;;1.30;;
19339;SDS011;9804;52.350;6.684;2023-06-04T13:54:40;4.20;;;1.33;;
19339;SDS011;9804;52.350;6.684;2023-06-04T13:57:06;2.78;;;1.30;;
19339;SDS011;9804;52.350;6.684;2023-06-04T13:59:32;4.70;;;1.45;;
19339;SDS011;9804;52.350;6.684;2023-06-04T14:01:58;3.97;;;1.20;;
19339;SDS011;9804;52.350;6.684;2023-06-04T14:04:24;3.78;;;1.50;;
19339;SDS011;9804;52.350;6.684;2023-06-04T14:06:49;3.35;;;1.30;;
19339;SDS011;9804;52.350;6.684;2023-06-04T14:09:18;1.55;;;1.20;;
19339;SDS011;9804;52.350;6.684;2023-06-04T14:11:44;2.45;;;1.40;;
19339;SDS011;9804;52.350;6.684;2023-06-04T14:14:14;3.97;;;1.23;;
19339;SDS011;9804;52.350;6.684;2023-06-04T14:16:40;2.22;;;1.50;;
19339;SDS011;9804;52.350;6.684;2023-06-04T14:19:05;3.05;;;1.35;;
19339;SDS011;9804;52.350;6.684;2023-06-04T14:21:30;4.55;;;1.52;;
19339;SDS011;9804;52.350;6.684;2023-06-04T14:23:56;5.25;;;1.98;;
19339;SDS011;9804;52.350;6.684;2023-06-04T14:26:21;2.30;;;1.25;;
19339;SDS011;9804;52.350;6.684;2023-06-04T14:28:47;2.25;;;1.48;;
19339;SDS011;9804;52.350;6.684;2023-06-04T14:31:12;1.38;;;1.27;;
19339;SDS011;9804;52.350;6.684;2023-06-04T14:33:38;2.65;;;1.45;;
19339;SDS011;9804;52.350;6.684;2023-06-04T14:36:03;2.40;;;1.38;;
19339;SDS011;9804;52.350;6.684;2023-06-04T14:38:29;4.32;;;1.52;;
19339;SDS011;9804;52.350;6.684;2023-06-04T14:40:54;2.45;;;1.27;;
19339;SDS011;9804;52.350;6.684;2023-06-04T14:43:21;1.63;;;1.27;;
19339;SDS011;9804;52.350;6.684;2023-06-04T14:45:47;2.75;;;1.27;;
19339;SDS011;9804;52.350;6.684;2023-06-04T14:48:12;3.08;;;1.50;;
19339;SDS011;9804;52.350;6.684;2023-06-04T14:50:38;2.80;;;1.30;;
19339;SDS011;9804;52.350;6.684;2023-06-04T14:53:03;4.30;;;1.40;;
19339;SDS011;9804;52.350;6.684;2023-06-04T14:55:32;4.07;;;1.55;;
19339;SDS011;9804;52.350;6.684;2023-06-04T14:57:57;2.45;;;1.60;;
19339;SDS011;9804;52.350;6.684;2023-06-04T15:00:23;3.65;;;1.98;;
19339;SDS011;9804;52.350;6.684;2023-06-04T15:02:48;2.47;;;1.60;;
19339;SDS011;9804;52.350;6.684;2023-06-04T15:05:14;3.75;;;1.60;;
19339;SDS011;9804;52.350;6.684;2023-06-04T15:07:39;2.65;;;1.80;;
19339;SDS011;9804;52.350;6.684;2023-06-04T15:10:05;2.80;;;1.55;;